Time;durP1;ratioP1;P1;durP2;ratioP2;P2;SDS_P1;SDS_P2;PMS_P1;PMS_P2;Temp;Humidity;BMP_temperature;BMP_pressure;BME280_temperature;BME280_humidity;BME280_pressure;Samples;Min_cycle;Max_cycle;Signal;HPM_P1;HPM_P2
2021/08/16 00:01:34;;;;;;;7.60;3.05;;;19.10;94.20;;;;;;5029922;28;20034;-66
2021/08/16 00:03:59;;;;;;;8.23;2.20;;;19.50;92.50;;;;;;5031308;28;20025;-65
2021/08/16 00:06:25;;;;;;;10.65;2.88;;;20.20;89.20;;;;;;5034539;28;20104;-65
2021/08/16 00:08:50;;;;;;;7.25;2.38;;;20.80;85.40;;;;;;5030876;28;20025;-66
2021/08/16 00:11:16;;;;;;;6.45;2.33;;;21.20;82.70;;;;;;5049387;28;20037;-65
2021/08/16 00:13:41;;;;;;;6.68;3.13;;;21.40;81.50;;;;;;5050797;28;20018;-65
2021/08/16 00:16:07;;;;;;;5.28;2.65;;;21.20;82.20;;;;;;5045807;28;20033;-64
2021/08/16 00:18:34;;;;;;;5.70;2.63;;;20.80;84.10;;;;;;5030884;28;20033;-65
2021/08/16 00:21:03;;;;;;;6.35;2.40;;;20.80;83.90;;;;;;5035201;28;20513;-64
2021/08/16 00:23:29;;;;;;;6.65;2.53;;;21.10;82.50;;;;;;5040687;28;20104;-65
2021/08/16 00:25:55;;;;;;;7.05;2.45;;;21.40;80.80;;;;;;5047570;28;20017;-65
2021/08/16 00:28:20;;;;;;;6.70;2.70;;;21.30;81.00;;;;;;5053585;28;20100;-65
2021/08/16 00:30:46;;;;;;;7.47;2.53;;;21.30;81.50;;;;;;5052819;28;20547;-66
2021/08/16 00:33:12;;;;;;;6.47;2.63;;;21.10;82.10;;;;;;5047791;28;20058;-67
2021/08/16 00:35:38;;;;;;;6.97;2.40;;;21.30;81.90;;;;;;5053944;28;20150;-66
2021/08/16 00:38:04;;;;;;;7.80;3.40;;;21.30;82.30;;;;;;5052832;28;20040;-65
2021/08/16 00:40:30;;;;;;;5.97;2.22;;;21.30;80.90;;;;;;5051585;28;20021;-64
2021/08/16 00:42:56;;;;;;;6.53;2.38;;;21.50;79.80;;;;;;5038387;28;20017;-64
2021/08/16 00:45:24;;;;;;;5.65;2.13;;;21.50;80.10;;;;;;5054172;28;20052;-62
2021/08/16 00:47:49;;;;;;;7.28;2.70;;;21.60;79.80;;;;;;5051150;28;20021;-65
2021/08/16 00:50:14;;;;;;;6.70;2.45;;;21.80;78.70;;;;;;5052731;28;20032;-64
2021/08/16 00:52:41;;;;;;;6.63;2.42;;;21.70;77.80;;;;;;5052287;28;20613;-64
2021/08/16 00:55:09;;;;;;;6.18;2.45;;;21.90;78.00;;;;;;5040868;28;20033;-65
2021/08/16 00:57:35;;;;;;;6.55;2.75;;;21.90;77.40;;;;;;5043846;28;20555;-65
2021/08/16 01:00:09;;;;;;;8.45;2.67;;;21.80;77.90;;;;;;5051009;28;20055;-65
2021/08/16 01:02:39;;;;;;;6.35;2.15;;;21.70;77.90;;;;;;5044706;28;20024;-65
2021/08/16 01:05:06;;;;;;;5.40;2.40;;;21.80;77.90;;;;;;5053282;28;20020;-65
2021/08/16 01:07:32;;;;;;;7.10;2.67;;;21.80;77.30;;;;;;5052607;28;20473;-65
2021/08/16 01:09:58;;;;;;;7.72;2.70;;;21.80;78.10;;;;;;5049135;28;20036;-66
2021/08/16 01:12:25;;;;;;;7.32;2.88;;;21.70;78.40;;;;;;5036288;28;20021;-66
2021/08/16 01:14:51;;;;;;;7.80;3.05;;;21.60;78.40;;;;;;5042909;28;20029;-64
2021/08/16 01:17:16;;;;;;;5.28;2.00;;;21.80;77.80;;;;;;5039010;28;20028;-66
2021/08/16 01:19:42;;;;;;;6.30;2.30;;;21.90;77.00;;;;;;5052175;28;20033;-65
2021/08/16 01:22:07;;;;;;;6.38;2.42;;;22.00;76.70;;;;;;5036086;28;20120;-65
2021/08/16 01:24:33;;;;;;;6.00;2.45;;;22.10;76.40;;;;;;5034309;28;20109;-66
2021/08/16 01:27:05;;;;;;;6.65;2.75;;;22.00;76.20;;;;;;5047621;28;20400;-66
2021/08/16 01:29:30;;;;;;;5.53;2.10;;;22.00;76.00;;;;;;5040961;28;20086;-64
2021/08/16 01:31:58;;;;;;;4.85;2.05;;;22.10;75.90;;;;;;5057727;28;20048;-64
2021/08/16 01:34:23;;;;;;;5.82;2.20;;;22.00;76.00;;;;;;5053736;28;20075;-66
2021/08/16 01:36:49;;;;;;;5.95;2.13;;;22.10;76.10;;;;;;5039778;28;20538;-65
2021/08/16 01:39:14;;;;;;;6.18;1.98;;;22.00;75.90;;;;;;5048983;28;20052;-65
2021/08/16 01:41:40;;;;;;;8.95;2.85;;;22.10;75.70;;;;;;5038576;28;20104;-66
2021/08/16 01:44:05;;;;;;;5.45;2.28;;;22.10;75.70;;;;;;5032383;28;20027;-65
2021/08/16 01:46:31;;;;;;;10.13;2.75;;;22.00;75.70;;;;;;5033498;28;20034;-66
2021/08/16 01:48:57;;;;;;;5.53;2.25;;;22.00;76.00;;;;;;5041643;28;20479;-65
2021/08/16 01:51:22;;;;;;;6.35;2.65;;;22.00;76.00;;;;;;5036492;28;20037;-66
2021/08/16 01:53:48;;;;;;;7.47;2.30;;;21.90;75.70;;;;;;5035359;28;20032;-66
2021/08/16 01:56:13;;;;;;;4.75;1.80;;;22.00;76.20;;;;;;5034514;28;20033;-66
2021/08/16 01:58:39;;;;;;;4.65;1.90;;;21.90;76.80;;;;;;5036939;28;20107;-65
2021/08/16 02:01:04;;;;;;;4.22;1.90;;;22.00;76.00;;;;;;5043083;28;20493;-65
2021/08/16 02:03:30;;;;;;;7.20;2.90;;;21.70;76.30;;;;;;5038607;28;20036;-65
2021/08/16 02:05:55;;;;;;;4.88;2.10;;;21.70;75.90;;;;;;5034510;28;20029;-65
2021/08/16 02:08:21;;;;;;;5.22;2.30;;;21.70;76.70;;;;;;5051183;28;20119;-67
2021/08/16 02:10:46;;;;;;;7.00;2.90;;;21.80;76.20;;;;;;5052615;28;20461;-65
2021/08/16 02:13:12;;;;;;;3.72;1.70;;;21.80;74.40;;;;;;5046104;28;20025;-65
2021/08/16 02:15:38;;;;;;;5.35;2.28;;;21.90;76.50;;;;;;5034849;28;20021;-66
2021/08/16 02:18:05;;;;;;;5.95;2.20;;;21.70;75.30;;;;;;5052286;28;20486;-65
2021/08/16 02:20:30;;;;;;;6.50;2.00;;;21.60;77.90;;;;;;5051258;28;20053;-67
2021/08/16 02:22:56;;;;;;;6.53;2.67;;;21.60;77.90;;;;;;5050500;28;20063;-65
2021/08/16 02:25:21;;;;;;;6.43;2.75;;;21.70;76.00;;;;;;5049412;28;20037;-64
2021/08/16 02:27:49;;;;;;;5.03;1.80;;;21.60;76.60;;;;;;5051569;28;20025;-65
2021/08/16 02:30:16;;;;;;;6.55;2.15;;;21.70;77.00;;;;;;5051310;28;20038;-66
2021/08/16 02:32:42;;;;;;;4.43;1.83;;;21.80;75.00;;;;;;5040603;28;20402;-65
2021/08/16 02:35:08;;;;;;;5.47;1.95;;;21.80;76.20;;;;;;5052931;28;20379;-66
2021/08/16 02:37:33;;;;;;;4.25;1.90;;;21.70;75.70;;;;;;5037500;28;20033;-66
2021/08/16 02:39:59;;;;;;;6.90;2.63;;;21.90;76.10;;;;;;5041012;28;20029;-65
2021/08/16 02:42:25;;;;;;;4.90;2.05;;;21.80;75.70;;;;;;5052165;28;20025;-65
2021/08/16 02:44:51;;;;;;;5.45;2.63;;;21.90;74.70;;;;;;5050414;28;20409;-66
2021/08/16 02:47:21;;;;;;;9.18;2.60;;;21.90;74.50;;;;;;5045719;28;20034;-65
2021/08/16 02:49:47;;;;;;;5.00;1.88;;;21.60;76.20;;;;;;5036041;28;20021;-66
2021/08/16 02:52:13;;;;;;;5.45;2.10;;;21.80;76.10;;;;;;5048940;28;20029;-65
2021/08/16 02:54:38;;;;;;;4.13;1.85;;;21.80;75.30;;;;;;5052173;28;20031;-65
2021/08/16 02:57:04;;;;;;;4.78;1.80;;;21.90;75.60;;;;;;5047229;28;20504;-66
2021/08/16 02:59:29;;;;;;;4.13;1.83;;;22.00;75.40;;;;;;5034552;28;20091;-65
2021/08/16 03:01:55;;;;;;;4.15;1.70;;;21.80;75.90;;;;;;5051546;28;20541;-64
2021/08/16 03:04:20;;;;;;;6.03;2.78;;;21.80;75.60;;;;;;5045949;28;20026;-65
2021/08/16 03:06:46;;;;;;;5.05;2.30;;;21.60;73.90;;;;;;5043088;28;20031;-65
2021/08/16 03:09:11;;;;;;;4.90;2.25;;;21.60;75.70;;;;;;5045880;28;20509;-64
2021/08/16 03:11:37;;;;;;;4.97;1.92;;;21.70;76.20;;;;;;5036518;28;20065;-66
2021/08/16 03:14:02;;;;;;;5.60;1.85;;;21.80;75.80;;;;;;5047449;28;20462;-66
2021/08/16 03:16:28;;;;;;;5.68;2.08;;;21.70;75.70;;;;;;5040012;28;20025;-64
2021/08/16 03:18:53;;;;;;;6.07;1.90;;;21.60;75.00;;;;;;5042836;28;20482;-65
2021/08/16 03:21:19;;;;;;;4.85;1.90;;;21.60;76.30;;;;;;5029629;28;20026;-67
2021/08/16 03:23:44;;;;;;;4.05;1.80;;;21.70;76.20;;;;;;5042005;28;20040;-65
2021/08/16 03:26:10;;;;;;;6.55;2.92;;;21.80;75.60;;;;;;5042722;28;20037;-64
2021/08/16 03:28:35;;;;;;;4.10;1.92;;;21.70;75.20;;;;;;5049759;28;20036;-66
2021/08/16 03:31:01;;;;;;;6.07;2.90;;;21.60;76.00;;;;;;5051258;28;20500;-65
2021/08/16 03:33:26;;;;;;;4.60;2.45;;;21.50;76.40;;;;;;5038836;28;20104;-64
2021/08/16 03:35:52;;;;;;;6.28;2.00;;;21.40;77.10;;;;;;5047745;28;20060;-64
2021/08/16 03:38:17;;;;;;;5.63;1.98;;;21.60;76.40;;;;;;5033236;28;20037;-66
2021/08/16 03:40:43;;;;;;;5.75;2.63;;;21.70;75.80;;;;;;5030986;28;20021;-65
2021/08/16 03:43:10;;;;;;;6.32;2.05;;;21.60;75.90;;;;;;5041966;28;20520;-65
2021/08/16 03:45:35;;;;;;;5.00;2.35;;;21.60;76.00;;;;;;5037687;28;20037;-64
2021/08/16 03:48:01;;;;;;;5.45;2.30;;;21.70;75.00;;;;;;5043199;28;20559;-65
2021/08/16 03:50:27;;;;;;;9.18;3.40;;;21.60;76.30;;;;;;5040956;28;20036;-65
2021/08/16 03:52:52;;;;;;;9.73;4.45;;;21.00;77.20;;;;;;5046670;28;20079;-67
2021/08/16 03:55:18;;;;;;;5.97;2.70;;;20.50;77.30;;;;;;5031226;28;20022;-65
2021/08/16 03:57:43;;;;;;;11.80;4.35;;;21.10;77.70;;;;;;5037753;28;20494;-65
2021/08/16 04:00:12;;;;;;;9.52;3.90;;;21.30;73.20;;;;;;5038835;28;20033;-65
2021/08/16 04:02:40;;;;;;;6.45;2.20;;;21.20;76.10;;;;;;5030761;28;20029;-64
2021/08/16 04:05:06;;;;;;;12.35;2.70;;;21.40;77.30;;;;;;5035576;28;20787;-65
2021/08/16 04:07:32;;;;;;;9.55;3.72;;;21.50;76.20;;;;;;5032117;28;20025;-65
2021/08/16 04:09:57;;;;;;;9.25;4.25;;;21.50;74.00;;;;;;5030584;28;20036;-68
2021/08/16 04:12:24;;;;;;;5.40;2.20;;;21.30;75.80;;;;;;5032471;28;20044;-65
2021/08/16 04:14:49;;;;;;;7.50;2.63;;;21.50;76.60;;;;;;5037740;28;20025;-67
2021/08/16 04:17:15;;;;;;;4.95;2.03;;;21.40;75.80;;;;;;5045756;28;20471;-64
2021/08/16 04:19:40;;;;;;;5.90;2.78;;;21.50;76.30;;;;;;5048849;28;20118;-65
2021/08/16 04:22:07;;;;;;;5.70;2.28;;;21.60;76.20;;;;;;5050565;28;20108;-66
2021/08/16 04:24:33;;;;;;;6.68;2.78;;;21.70;75.70;;;;;;5038360;28;20072;-65
2021/08/16 04:26:58;;;;;;;9.15;4.25;;;21.30;77.00;;;;;;5041029;28;20052;-65
2021/08/16 04:29:25;;;;;;;6.88;3.33;;;20.90;77.90;;;;;;5040402;28;20029;-66
2021/08/16 04:31:50;;;;;;;5.95;2.85;;;20.50;78.70;;;;;;5049579;28;20064;-65
2021/08/16 04:34:16;;;;;;;11.15;4.85;;;20.50;81.20;;;;;;5050497;28;20056;-65
2021/08/16 04:36:41;;;;;;;10.27;4.72;;;20.60;79.00;;;;;;5043985;28;20108;-65
2021/08/16 04:39:07;;;;;;;8.65;3.58;;;20.40;80.00;;;;;;5031233;28;20537;-65
2021/08/16 04:41:32;;;;;;;9.98;4.55;;;20.60;79.40;;;;;;5030592;28;20057;-65
2021/08/16 04:43:58;;;;;;;6.30;2.63;;;20.50;80.10;;;;;;5029467;28;20474;-66
2021/08/16 04:46:23;;;;;;;10.85;3.30;;;20.80;79.50;;;;;;5030821;28;20044;-64
2021/08/16 04:48:49;;;;;;;8.93;3.42;;;21.20;77.90;;;;;;5031762;28;20029;-66
2021/08/16 04:51:15;;;;;;;10.05;3.90;;;21.10;77.90;;;;;;5028327;28;20061;-66
2021/08/16 04:53:40;;;;;;;9.18;3.63;;;21.20;74.30;;;;;;5031973;28;20017;-65
2021/08/16 04:56:06;;;;;;;10.38;4.30;;;21.00;75.00;;;;;;5039701;28;20035;-65
2021/08/16 04:58:32;;;;;;;10.02;4.18;;;20.90;78.40;;;;;;5042150;28;20078;-67
2021/08/16 05:00:58;;;;;;;9.65;3.88;;;20.90;74.80;;;;;;5043885;28;20099;-65
2021/08/16 05:03:23;;;;;;;8.25;3.00;;;21.00;74.90;;;;;;5023756;28;20048;-64
2021/08/16 05:05:52;;;;;;;9.10;4.18;;;21.00;76.80;;;;;;5025041;28;20029;-65
2021/08/16 05:08:18;;;;;;;7.28;3.10;;;20.80;74.80;;;;;;5025576;28;20022;-68
2021/08/16 05:10:46;;;;;;;8.27;2.97;;;20.90;76.70;;;;;;5026591;28;20040;-63
2021/08/16 05:13:12;;;;;;;9.05;3.20;;;20.90;77.10;;;;;;5022743;28;20116;-65
2021/08/16 05:15:43;;;;;;;8.57;3.65;;;20.80;78.10;;;;;;5028391;28;20021;-64
2021/08/16 05:18:09;;;;;;;13.15;4.43;;;21.20;76.70;;;;;;5029188;28;20036;-65
2021/08/16 05:20:37;;;;;;;10.38;4.30;;;20.70;76.60;;;;;;5026341;28;20541;-64
2021/08/16 05:23:04;;;;;;;11.40;4.10;;;20.50;77.30;;;;;;5036361;28;20108;-65
2021/08/16 05:25:30;;;;;;;10.43;4.13;;;20.50;78.50;;;;;;5032332;28;20032;-65
2021/08/16 05:27:56;;;;;;;10.65;4.53;;;20.30;79.20;;;;;;5064290;28;20181;-64
2021/08/16 05:30:22;;;;;;;11.00;4.35;;;20.50;77.60;;;;;;5043093;28;20021;-63
2021/08/16 05:32:48;;;;;;;10.07;3.97;;;20.80;76.80;;;;;;5051880;28;20127;-67
2021/08/16 05:35:14;;;;;;;11.00;4.85;;;21.00;76.10;;;;;;5046615;28;20030;-67
2021/08/16 05:37:40;;;;;;;15.27;5.05;;;20.70;75.10;;;;;;5040651;28;20021;-67
2021/08/16 05:40:06;;;;;;;10.90;4.53;;;20.50;77.20;;;;;;5041087;28;20032;-68
2021/08/16 05:42:32;;;;;;;13.00;4.72;;;20.00;79.20;;;;;;5040117;28;20632;-64
2021/08/16 05:44:58;;;;;;;9.57;4.53;;;20.50;77.90;;;;;;5039957;28;20046;-65
2021/08/16 05:47:23;;;;;;;11.07;4.43;;;19.90;79.40;;;;;;5039753;28;20025;-64
2021/08/16 05:49:49;;;;;;;13.70;5.57;;;20.30;78.20;;;;;;5042787;28;20032;-65
2021/08/16 05:52:14;;;;;;;11.52;4.55;;;19.90;78.00;;;;;;5037553;28;20032;-67
2021/08/16 05:54:40;;;;;;;14.30;5.18;;;20.20;78.40;;;;;;5044091;28;20025;-64
2021/08/16 05:57:06;;;;;;;10.50;4.38;;;19.70;80.30;;;;;;5035645;28;20082;-65
2021/08/16 05:59:31;;;;;;;11.57;4.10;;;19.70;80.90;;;;;;5049351;28;20033;-64
2021/08/16 06:01:57;;;;;;;9.63;3.92;;;20.50;77.20;;;;;;5041330;28;20049;-64
2021/08/16 06:04:22;;;;;;;13.52;5.40;;;20.40;77.90;;;;;;5032221;28;20025;-63
2021/08/16 06:06:48;;;;;;;13.68;4.95;;;20.20;76.20;;;;;;5044443;28;20022;-63
2021/08/16 06:09:13;;;;;;;10.32;4.45;;;20.30;77.80;;;;;;5042690;28;20398;-67
2021/08/16 06:11:39;;;;;;;9.73;4.85;;;20.60;76.50;;;;;;5041410;28;20036;-65
2021/08/16 06:14:04;;;;;;;11.85;5.63;;;19.60;79.20;;;;;;5036826;28;20478;-63
2021/08/16 06:16:30;;;;;;;11.73;5.22;;;19.70;79.20;;;;;;5035068;28;20545;-64
2021/08/16 06:18:55;;;;;;;9.70;4.45;;;19.70;80.90;;;;;;5036134;28;20028;-65
2021/08/16 06:21:21;;;;;;;16.73;6.63;;;20.10;78.50;;;;;;5043412;28;20033;-67
2021/08/16 06:23:47;;;;;;;13.32;6.72;;;19.70;79.30;;;;;;5048321;28;20053;-66
2021/08/16 06:26:13;;;;;;;12.77;6.70;;;19.50;80.70;;;;;;5049492;28;20482;-65
2021/08/16 06:28:39;;;;;;;12.75;6.25;;;19.30;82.00;;;;;;5068003;28;20170;-65
2021/08/16 06:31:04;;;;;;;12.30;7.28;;;19.00;83.50;;;;;;5051910;28;20680;-66
2021/08/16 06:33:30;;;;;;;13.85;6.40;;;19.30;81.50;;;;;;5044437;28;20154;-65
2021/08/16 06:35:56;;;;;;;15.80;6.85;;;19.60;81.10;;;;;;5035862;28;20017;-65
2021/08/16 06:38:23;;;;;;;14.90;6.97;;;19.30;81.70;;;;;;5026457;28;20041;-66
2021/08/16 06:40:57;;;;;;;13.85;7.47;;;19.40;83.40;;;;;;5025295;28;20108;-64
2021/08/16 06:43:26;;;;;;;15.35;7.55;;;19.50;81.40;;;;;;5026009;28;20033;-65
2021/08/16 06:45:52;;;;;;;13.43;7.55;;;19.70;80.80;;;;;;5023881;28;20034;-65
2021/08/16 06:48:17;;;;;;;14.55;5.72;;;20.00;78.90;;;;;;5023953;28;20037;-65
2021/08/16 06:50:44;;;;;;;12.05;6.07;;;20.30;78.90;;;;;;5024495;28;20072;-67
2021/08/16 06:53:13;;;;;;;16.65;7.90;;;20.60;76.80;;;;;;5025908;28;20402;-67
2021/08/16 06:55:40;;;;;;;13.88;7.70;;;20.40;77.70;;;;;;5038575;28;20021;-64
2021/08/16 06:58:05;;;;;;;15.02;8.43;;;20.20;78.00;;;;;;5028388;28;20501;-63
2021/08/16 07:00:31;;;;;;;13.98;7.32;;;20.00;78.60;;;;;;5039809;28;20037;-63
2021/08/16 07:03:00;;;;;;;13.52;6.20;;;20.40;77.60;;;;;;5028724;28;20053;-62
2021/08/16 07:05:26;;;;;;;13.00;5.85;;;20.30;78.10;;;;;;5039311;28;20027;-65
2021/08/16 07:07:52;;;;;;;15.75;8.50;;;20.40;79.00;;;;;;5043812;28;20029;-65
2021/08/16 07:10:19;;;;;;;15.05;8.68;;;20.40;77.30;;;;;;5045151;28;20025;-64
2021/08/16 07:12:44;;;;;;;12.23;7.07;;;20.10;78.50;;;;;;5044375;28;20524;-66
2021/08/16 07:15:11;;;;;;;16.73;9.02;;;20.00;80.30;;;;;;5045628;28;20060;-65
2021/08/16 07:17:36;;;;;;;17.75;8.80;;;19.70;79.80;;;;;;5043876;28;20025;-68
2021/08/16 07:20:03;;;;;;;13.00;7.22;;;19.60;80.80;;;;;;5045529;28;20093;-65
2021/08/16 07:22:29;;;;;;;12.50;6.95;;;19.90;81.40;;;;;;5035238;28;20029;-66
2021/08/16 07:24:54;;;;;;;14.85;8.05;;;20.50;78.10;;;;;;5031387;28;20443;-64
2021/08/16 07:27:20;;;;;;;13.23;7.80;;;20.40;78.20;;;;;;5038100;28;20041;-65
2021/08/16 07:29:46;;;;;;;14.85;8.27;;;20.50;77.40;;;;;;5036755;28;20032;-65
2021/08/16 07:32:11;;;;;;;13.75;8.73;;;20.50;76.80;;;;;;5036063;28;20036;-66
2021/08/16 07:34:37;;;;;;;15.35;10.05;;;20.50;77.10;;;;;;5035821;28;20601;-65
2021/08/16 07:37:04;;;;;;;12.98;7.95;;;20.50;76.00;;;;;;5031764;28;20080;-64
2021/08/16 07:39:30;;;;;;;15.27;8.57;;;20.50;77.40;;;;;;5023825;28;20043;-65
2021/08/16 07:41:56;;;;;;;14.48;9.73;;;20.50;76.90;;;;;;5041916;28;20696;-66
2021/08/16 07:44:22;;;;;;;15.40;8.95;;;20.50;77.20;;;;;;5042616;28;20029;-65
2021/08/16 07:46:47;;;;;;;15.60;9.30;;;20.50;76.80;;;;;;5043912;28;20043;-67
2021/08/16 07:52:36;;;;;;;14.05;9.30;;;19.90;80.00;;;;;;5029152;28;20195;-64
2021/08/16 07:55:03;;;;;;;14.63;8.50;;;20.10;78.20;;;;;;5042923;28;20021;-67
2021/08/16 07:57:31;;;;;;;15.77;9.85;;;20.20;78.90;;;;;;5045128;28;20049;-66
2021/08/16 07:59:57;;;;;;;19.63;10.02;;;20.30;77.90;;;;;;5043165;28;20025;-67
2021/08/16 08:02:22;;;;;;;17.38;10.23;;;19.80;79.60;;;;;;5043189;28;20523;-66
2021/08/16 08:04:48;;;;;;;17.80;10.63;;;20.00;79.80;;;;;;5043851;28;20033;-65
2021/08/16 08:07:13;;;;;;;15.55;9.40;;;19.70;79.70;;;;;;5040721;28;20521;-67
2021/08/16 08:09:39;;;;;;;12.27;8.98;;;19.70;80.80;;;;;;5029269;28;20039;-65
2021/08/16 08:12:04;;;;;;;15.82;10.30;;;20.00;80.50;;;;;;5041715;28;20601;-67
2021/08/16 08:14:30;;;;;;;14.73;8.85;;;19.80;80.00;;;;;;5034193;28;20116;-67
2021/08/16 08:16:55;;;;;;;16.95;10.25;;;20.20;79.70;;;;;;5025807;28;20021;-68
2021/08/16 08:19:21;;;;;;;15.55;10.00;;;19.90;79.90;;;;;;5033113;28;20392;-65
2021/08/16 08:21:47;;;;;;;12.00;8.10;;;20.00;79.60;;;;;;5026953;28;20033;-63
2021/08/16 08:24:12;;;;;;;13.80;9.65;;;20.60;77.90;;;;;;5030925;28;20386;-66
2021/08/16 08:26:38;;;;;;;12.52;8.77;;;20.40;78.00;;;;;;5034389;28;20440;-66
2021/08/16 08:29:03;;;;;;;12.80;8.77;;;20.50;78.20;;;;;;5026279;28;20150;-65
2021/08/16 08:31:29;;;;;;;15.18;9.38;;;20.50;77.70;;;;;;5022708;28;20032;-65
2021/08/16 08:33:54;;;;;;;11.45;7.93;;;20.50;77.30;;;;;;5023787;28;20022;-66
2021/08/16 08:36:20;;;;;;;13.05;7.35;;;20.50;77.80;;;;;;5023806;28;20044;-66
2021/08/16 08:38:46;;;;;;;10.15;7.40;;;20.70;77.60;;;;;;5024512;28;20514;-65
2021/08/16 08:41:16;;;;;;;14.40;9.02;;;20.90;76.30;;;;;;5040722;28;20033;-66
2021/08/16 08:43:43;;;;;;;11.90;7.65;;;20.70;77.30;;;;;;5027687;28;20033;-64
2021/08/16 08:46:09;;;;;;;19.23;9.18;;;20.80;76.80;;;;;;5023095;28;20032;-65
2021/08/16 08:48:35;;;;;;;15.35;8.25;;;20.70;77.10;;;;;;5026199;28;20025;-65
2021/08/16 08:51:01;;;;;;;15.90;10.25;;;20.80;77.50;;;;;;5024628;28;20026;-66
2021/08/16 08:53:28;;;;;;;13.80;8.45;;;20.80;77.40;;;;;;5035583;28;20049;-63
2021/08/16 08:55:54;;;;;;;13.23;8.35;;;20.70;78.00;;;;;;5039976;28;20021;-66
2021/08/16 08:58:20;;;;;;;16.77;9.65;;;20.40;80.10;;;;;;5034714;28;20027;-63
2021/08/16 09:00:46;;;;;;;15.77;9.13;;;20.30;82.10;;;;;;5036449;28;21021;-63
2021/08/16 09:03:11;;;;;;;16.63;10.60;;;20.30;83.00;;;;;;5026186;28;20053;-64
2021/08/16 09:05:52;;;;;;;15.60;9.27;;;20.50;81.40;;;;;;5035947;28;20072;-65
2021/08/16 09:08:31;;;;;;;17.05;10.10;;;20.50;82.50;;;;;;5038325;28;20025;-66
2021/08/16 09:11:11;;;;;;;14.07;9.45;;;20.40;81.90;;;;;;5041588;28;20029;-67
2021/08/16 09:13:37;;;;;;;14.23;10.65;;;20.30;83.30;;;;;;5043350;28;20033;-66
2021/08/16 09:16:11;;;;;;;15.93;10.38;;;20.20;85.70;;;;;;5047571;28;20104;-67
2021/08/16 09:18:37;;;;;;;15.73;9.25;;;20.40;84.40;;;;;;5047626;28;20491;-67
2021/08/16 09:21:03;;;;;;;15.77;9.05;;;20.50;83.60;;;;;;5045679;28;20043;-64
2021/08/16 09:23:45;;;;;;;14.25;9.32;;;20.90;81.10;;;;;;5046195;28;20017;-67
2021/08/16 09:26:11;;;;;;;14.88;9.35;;;20.80;82.00;;;;;;5054803;28;20024;-66
2021/08/16 09:28:37;;;;;;;14.13;9.43;;;20.80;82.90;;;;;;5067641;28;20031;-66
2021/08/16 09:31:11;;;;;;;17.45;9.63;;;20.80;82.20;;;;;;5066663;28;20028;-65
2021/08/16 09:33:37;;;;;;;15.88;9.05;;;20.90;81.90;;;;;;5065875;28;20029;-65
2021/08/16 09:36:02;;;;;;;14.73;9.68;;;20.70;82.50;;;;;;5067718;28;20024;-66
2021/08/16 09:38:40;;;;;;;13.40;8.52;;;20.70;84.40;;;;;;5065649;28;20120;-64
2021/08/16 09:41:21;;;;;;;14.52;8.68;;;20.60;83.70;;;;;;5065509;28;20024;-64
2021/08/16 09:43:47;;;;;;;12.02;7.38;;;20.50;83.80;;;;;;5067167;28;20378;-66
2021/08/16 09:46:16;;;;;;;10.85;7.55;;;20.90;82.10;;;;;;5065549;28;20031;-65
2021/08/16 09:48:43;;;;;;;12.38;8.20;;;20.70;82.60;;;;;;5067250;28;20040;-66
2021/08/16 09:51:18;;;;;;;11.48;7.50;;;20.70;83.00;;;;;;5066614;28;20404;-66
2021/08/16 09:53:45;;;;;;;11.25;7.07;;;20.50;82.80;;;;;;5046349;28;20060;-64
2021/08/16 09:56:10;;;;;;;14.20;7.25;;;20.80;81.30;;;;;;5046550;28;20044;-67
2021/08/16 09:58:36;;;;;;;10.70;6.47;;;20.40;83.30;;;;;;5046926;28;20037;-65
2021/08/16 10:01:02;;;;;;;8.77;6.13;;;20.90;81.50;;;;;;5044233;28;20638;-66
2021/08/16 10:03:28;;;;;;;9.48;6.03;;;21.10;79.70;;;;;;5045757;28;20016;-66
2021/08/16 10:05:55;;;;;;;9.60;5.70;;;21.20;79.50;;;;;;5046723;28;20059;-65
2021/08/16 10:08:22;;;;;;;9.70;5.60;;;21.40;78.30;;;;;;5046476;28;20025;-65
2021/08/16 10:10:51;;;;;;;8.15;5.13;;;21.40;77.80;;;;;;5041595;28;20037;-64
2021/08/16 10:13:20;;;;;;;9.95;5.78;;;21.30;78.00;;;;;;5044399;28;20108;-68
2021/08/16 10:15:50;;;;;;;9.55;5.65;;;21.20;78.30;;;;;;5044624;28;20029;-65
2021/08/16 10:18:21;;;;;;;8.27;5.00;;;21.40;77.90;;;;;;5045571;28;20025;-65
2021/08/16 10:20:48;;;;;;;11.68;5.20;;;21.50;77.10;;;;;;5044976;28;20028;-65
2021/08/16 10:23:22;;;;;;;10.00;4.88;;;21.40;76.90;;;;;;5046336;28;20063;-65
2021/08/16 10:25:51;;;;;;;11.07;5.25;;;21.60;76.50;;;;;;5044995;28;20055;-67
2021/08/16 10:28:29;;;;;;;13.38;5.45;;;21.60;76.40;;;;;;5045173;28;20074;-69
2021/08/16 10:30:57;;;;;;;11.63;5.63;;;21.50;77.00;;;;;;5043988;28;20401;-67
2021/08/16 10:33:23;;;;;;;11.25;5.50;;;21.50;77.30;;;;;;5044716;28;20032;-66
2021/08/16 10:35:50;;;;;;;10.38;5.13;;;21.40;77.60;;;;;;5046215;28;20029;-67
2021/08/16 10:38:18;;;;;;;10.48;5.25;;;21.40;77.60;;;;;;5046009;28;20731;-65
2021/08/16 10:40:45;;;;;;;10.75;5.20;;;21.40;77.60;;;;;;5046261;28;20458;-67
2021/08/16 10:43:14;;;;;;;9.02;4.55;;;21.40;77.70;;;;;;5044903;28;20032;-68
2021/08/16 10:45:57;;;;;;;9.25;4.80;;;21.40;77.50;;;;;;5045414;28;20502;-67
2021/08/16 10:48:28;;;;;;;8.25;4.03;;;21.40;77.40;;;;;;5046226;28;20033;-68
2021/08/16 10:51:08;;;;;;;8.63;4.85;;;21.40;77.50;;;;;;5046097;28;20028;-68
2021/08/16 10:53:51;;;;;;;10.85;4.75;;;21.40;77.50;;;;;;5045752;28;20655;-67
2021/08/16 10:56:21;;;;;;;8.43;4.45;;;21.40;77.40;;;;;;5045865;28;20029;-68
2021/08/16 10:58:47;;;;;;;9.18;4.65;;;21.40;77.40;;;;;;5044904;28;20029;-68
2021/08/16 11:01:24;;;;;;;8.13;4.50;;;21.40;77.40;;;;;;5045557;28;20020;-67
2021/08/16 11:03:57;;;;;;;9.77;4.75;;;21.40;77.30;;;;;;5045855;28;20032;-67
2021/08/16 11:06:23;;;;;;;10.18;4.20;;;21.40;77.30;;;;;;5045583;28;20091;-67
2021/08/16 11:08:58;;;;;;;7.47;3.83;;;21.40;76.90;;;;;;5045166;28;20021;-67
2021/08/16 11:11:24;;;;;;;6.05;3.25;;;21.40;76.40;;;;;;5044469;28;20216;-67
2021/08/16 11:13:50;;;;;;;7.32;3.80;;;21.40;76.40;;;;;;5044113;28;20028;-67
2021/08/16 11:16:16;;;;;;;9.32;4.07;;;21.40;76.80;;;;;;5044962;28;20151;-67
2021/08/16 11:18:53;;;;;;;8.65;4.05;;;21.40;76.90;;;;;;5045537;28;20025;-68
2021/08/16 11:21:21;;;;;;;7.68;3.38;;;21.40;76.80;;;;;;5043470;28;20119;-68
2021/08/16 11:23:58;;;;;;;7.70;4.00;;;21.40;76.30;;;;;;5045450;28;20268;-67
2021/08/16 11:26:25;;;;;;;9.38;4.20;;;21.40;76.60;;;;;;5036582;28;20184;-69
2021/08/16 11:28:51;;;;;;;7.78;3.80;;;21.40;76.50;;;;;;5025212;28;20083;-68
2021/08/16 11:31:16;;;;;;;7.28;3.55;;;21.40;76.20;;;;;;5024997;28;20116;-68
2021/08/16 11:33:42;;;;;;;6.97;3.85;;;21.40;76.30;;;;;;5025554;28;20059;-66
2021/08/16 11:36:15;;;;;;;7.03;3.67;;;21.40;76.80;;;;;;5023934;28;20025;-68
2021/08/16 11:38:43;;;;;;;6.35;3.70;;;21.40;76.90;;;;;;5023984;28;20099;-68
2021/08/16 11:41:11;;;;;;;6.55;3.63;;;21.40;76.90;;;;;;5024774;28;20033;-68
2021/08/16 11:43:36;;;;;;;8.38;3.90;;;21.40;76.70;;;;;;5023666;28;20032;-69
2021/08/16 11:46:16;;;;;;;6.80;3.40;;;21.40;76.80;;;;;;5025339;28;20021;-69
2021/08/16 11:48:53;;;;;;;6.30;3.33;;;21.40;77.10;;;;;;5025190;28;20097;-69
2021/08/16 11:51:20;;;;;;;7.30;3.60;;;21.30;76.60;;;;;;5024285;28;20022;-69
2021/08/16 11:53:48;;;;;;;6.80;3.45;;;21.30;76.80;;;;;;5025145;28;20064;-67
2021/08/16 11:56:14;;;;;;;6.13;3.78;;;21.40;76.90;;;;;;5025005;28;20063;-68
2021/08/16 11:58:41;;;;;;;7.82;4.38;;;21.40;77.00;;;;;;5024892;28;20026;-68
2021/08/16 12:01:09;;;;;;;6.35;3.67;;;21.40;77.00;;;;;;5023088;28;20061;-70
2021/08/16 12:03:35;;;;;;;6.05;3.45;;;21.40;76.80;;;;;;5025044;28;20037;-68
2021/08/16 12:06:03;;;;;;;9.32;3.83;;;21.40;76.80;;;;;;5024390;28;20033;-69
2021/08/16 12:08:28;;;;;;;6.63;3.50;;;21.40;76.90;;;;;;5022714;28;20029;-68
2021/08/16 12:10:54;;;;;;;6.65;3.35;;;21.40;76.90;;;;;;5022901;28;20042;-67
2021/08/16 12:13:24;;;;;;;7.88;3.80;;;21.40;76.90;;;;;;5023308;28;20045;-69
2021/08/16 12:15:51;;;;;;;7.72;3.38;;;21.40;76.90;;;;;;5023657;28;20414;-67
2021/08/16 12:18:17;;;;;;;7.35;3.50;;;21.40;77.00;;;;;;5024567;28;20303;-68
2021/08/16 12:20:45;;;;;;;5.80;3.15;;;21.40;77.00;;;;;;5022740;28;20025;-69
2021/08/16 12:23:26;;;;;;;8.65;3.50;;;21.40;76.90;;;;;;5024458;28;20399;-67
2021/08/16 12:25:53;;;;;;;5.50;3.30;;;21.40;76.80;;;;;;5028810;28;20037;-68
2021/08/16 12:28:18;;;;;;;6.40;3.20;;;21.40;76.90;;;;;;5042530;28;20029;-67
2021/08/16 12:30:44;;;;;;;5.80;3.10;;;21.40;76.80;;;;;;5044160;28;20035;-68
2021/08/16 12:33:12;;;;;;;6.55;3.40;;;21.40;76.90;;;;;;5044604;28;20109;-68
2021/08/16 12:35:38;;;;;;;5.47;3.20;;;21.40;76.90;;;;;;5043924;28;20055;-68
2021/08/16 12:38:05;;;;;;;6.43;3.17;;;21.40;76.90;;;;;;5044204;28;20040;-66
2021/08/16 12:40:31;;;;;;;5.30;2.88;;;21.40;76.90;;;;;;5044137;28;20033;-67
2021/08/16 12:42:59;;;;;;;6.43;3.20;;;21.40;76.80;;;;;;5042290;28;20029;-68
2021/08/16 12:45:25;;;;;;;6.15;2.90;;;21.40;76.90;;;;;;5043114;28;20458;-69